Terminal Aerodrome Forecast
Issued by NWS Central Illinois

Home | Current Version | Previous Version | Text Only | Print | Product List | Glossary On
Versions: 1 2 3 4 5 6 7 8 9 10 11 12 13 14 15 16 17 18 19 20 21
000
FTUS43 KILX 241210 AAA
TAFPIA
TAF AMD
KPIA 241210Z 2412/2512 36004KT 4SM BR FEW002 BKN090
      TEMPO 2412/2414 1/4SM FG OVC002
     FM241400 01004KT P6SM BKN090
     FM241600 01005KT P6SM VCSH BKN050
     FM242100 36008KT P6SM BKN040
     FM250500 34005KT P6SM SCT040 BKN110=

USA.gov is the U.S. government's official web portal to all federal, state and local government web resources and services.